Salesville, Arkansas
Current Conditions -  °F | °C
As of 9:53 PM on Thursday 27 Nov 2014 (Local Time) from KBPK Reporting Station
Clear Clear  
Wind Chill: 30°   Ceiling: Unl
Heat Index: 34°   Visibility: 9mi
Dew Point: 24°   Wind: 5mph
Humidity: 67%   Direction: 150°SSE
Pressure: 30.39"   Gusts: NA
Location:  36.2902°N, 92.3897°W
Report Text: KBPK 280353Z AUTO 15004KT 9SM CLR 01/M04 A3039 RMK AO2 SLP298 T00111044
Loading
Personal Weather Stations






























Interactive Weather Map New forecast layout! Learn more

10-Day Weather Forecast

Advertisements
Track Severe Weather on mobile